Time;durP1;ratioP1;P1;durP2;ratioP2;P2;SDS_P1;SDS_P2;PMS_P1;PMS_P2;Temp;Humidity;BMP_temperature;BMP_pressure;BME280_temperature;BME280_humidity;BME280_pressure;Samples;Min_cycle;Max_cycle;Signal;HPM_P1;HPM_P2
2022/11/28 00:01:45;;;;;;;12.47;6.93;;;8.40;99.90;;;;;;5056748;28;20033;-85
2022/11/28 00:04:12;;;;;;;12.63;7.60;;;8.40;99.90;;;;;;5056391;28;20021;-85
2022/11/28 00:06:40;;;;;;;11.07;6.40;;;8.40;99.90;;;;;;5055157;28;20458;-85
2022/11/28 00:09:07;;;;;;;10.30;6.27;;;8.40;99.90;;;;;;5056379;28;20100;-84
2022/11/28 00:11:33;;;;;;;10.67;6.30;;;8.40;99.90;;;;;;5038232;28;20050;-84
2022/11/28 00:13:59;;;;;;;9.90;6.30;;;8.40;99.90;;;;;;5037802;28;20080;-85
2022/11/28 00:16:24;;;;;;;10.07;6.00;;;8.40;99.90;;;;;;5054950;28;20067;-84
2022/11/28 00:18:54;;;;;;;11.83;6.73;;;8.40;99.90;;;;;;5038382;28;20032;-85
2022/11/28 00:21:20;;;;;;;14.00;6.60;;;8.40;99.90;;;;;;5054939;28;20017;-83
2022/11/28 00:23:47;;;;;;;11.47;6.00;;;8.40;99.90;;;;;;5055169;28;20025;-85
2022/11/28 00:26:16;;;;;;;10.30;6.13;;;8.40;99.90;;;;;;5055093;28;20477;-84
2022/11/28 00:28:42;;;;;;;10.10;5.73;;;8.50;99.90;;;;;;5054645;28;20032;-83
2022/11/28 00:31:15;;;;;;;10.43;6.17;;;8.50;99.90;;;;;;5054646;28;20468;-84
2022/11/28 00:33:41;;;;;;;11.93;7.07;;;8.50;99.90;;;;;;5054611;28;20043;-83
2022/11/28 00:36:07;;;;;;;10.07;5.53;;;8.50;99.90;;;;;;5038570;28;20095;-85
2022/11/28 00:38:33;;;;;;;9.37;5.30;;;8.50;99.90;;;;;;5038668;28;20022;-84
2022/11/28 00:41:04;;;;;;;10.50;5.40;;;8.50;99.90;;;;;;5055075;28;20439;-86
2022/11/28 00:43:31;;;;;;;11.50;6.00;;;8.50;99.90;;;;;;5054664;28;20513;-86
2022/11/28 00:45:56;;;;;;;9.43;4.77;;;8.50;99.90;;;;;;5038692;28;20029;-85
2022/11/28 00:48:22;;;;;;;10.73;5.57;;;8.60;99.90;;;;;;5054732;28;20428;-86
2022/11/28 00:50:49;;;;;;;9.40;5.70;;;8.60;99.90;;;;;;5038190;28;20040;-85
2022/11/28 00:53:14;;;;;;;9.27;4.97;;;8.60;99.90;;;;;;5054124;28;20021;-85
2022/11/28 00:55:40;;;;;;;9.83;5.37;;;8.60;99.90;;;;;;5038045;28;20029;-85
2022/11/28 00:58:06;;;;;;;12.73;5.17;;;8.70;99.90;;;;;;5054580;28;20029;-86
2022/11/28 01:00:32;;;;;;;10.03;4.93;;;8.70;99.90;;;;;;5055514;28;20033;-85
2022/11/28 01:02:58;;;;;;;8.53;4.83;;;8.60;99.90;;;;;;5036844;28;20044;-85
2022/11/28 01:05:24;;;;;;;10.17;5.10;;;8.70;99.90;;;;;;5055982;28;20074;-87
2022/11/28 01:07:49;;;;;;;10.33;4.63;;;8.70;99.90;;;;;;5021831;28;20025;-85
2022/11/28 01:10:15;;;;;;;8.53;4.77;;;8.70;99.90;;;;;;5039056;28;20485;-85
2022/11/28 01:12:41;;;;;;;10.53;4.27;;;8.70;99.90;;;;;;5055160;28;20032;-85
2022/11/28 01:15:09;;;;;;;9.43;4.60;;;8.70;99.90;;;;;;5037983;28;20053;-85
2022/11/28 01:17:35;;;;;;;9.97;4.93;;;8.70;99.90;;;;;;5054560;28;20029;-86
2022/11/28 01:20:00;;;;;;;10.17;4.77;;;8.80;99.90;;;;;;5037832;28;20039;-87
2022/11/28 01:22:26;;;;;;;10.23;4.83;;;8.80;99.90;;;;;;5037838;28;20033;-87
2022/11/28 01:24:52;;;;;;;9.10;5.00;;;8.80;99.90;;;;;;5022386;28;20473;-86
2022/11/28 01:27:17;;;;;;;7.87;5.00;;;8.80;99.90;;;;;;5022173;28;20496;-87
2022/11/28 01:29:43;;;;;;;8.67;4.23;;;8.80;99.90;;;;;;5039006;28;20091;-85
2022/11/28 01:32:09;;;;;;;9.57;3.93;;;8.90;99.90;;;;;;5041715;28;20029;-87
2022/11/28 01:34:34;;;;;;;10.23;4.00;;;8.90;99.90;;;;;;5040319;28;20031;-87
2022/11/28 01:37:00;;;;;;;8.57;4.37;;;9.00;99.90;;;;;;5022213;28;20547;-86
2022/11/28 01:39:25;;;;;;;9.50;4.70;;;8.90;99.90;;;;;;5038259;28;20029;-86
2022/11/28 01:41:51;;;;;;;8.40;4.37;;;8.90;99.90;;;;;;5037289;28;20482;-86
2022/11/28 01:44:16;;;;;;;9.03;4.80;;;8.90;99.90;;;;;;5053316;28;20032;-85
2022/11/28 01:46:42;;;;;;;8.70;4.33;;;9.00;99.90;;;;;;5053695;28;20381;-84
2022/11/28 01:49:13;;;;;;;9.50;4.80;;;9.00;99.90;;;;;;5036532;28;20527;-85
2022/11/28 01:51:44;;;;;;;8.97;4.00;;;9.00;99.90;;;;;;5053506;28;20129;-86
2022/11/28 01:54:10;;;;;;;7.60;4.20;;;9.00;99.90;;;;;;5053393;28;20428;-86
2022/11/28 01:56:50;;;;;;;9.20;4.07;;;9.00;99.90;;;;;;5036749;28;20021;-84
2022/11/28 01:59:16;;;;;;;8.27;3.60;;;9.10;99.90;;;;;;5053899;28;20115;-86
2022/11/28 02:01:43;;;;;;;6.83;4.03;;;9.10;99.90;;;;;;5036812;28;20116;-86
2022/11/28 02:04:09;;;;;;;8.83;4.97;;;9.20;99.90;;;;;;5052888;28;20025;-85
2022/11/28 02:06:35;;;;;;;7.40;4.17;;;9.10;99.90;;;;;;5052975;28;20021;-85
2022/11/28 02:09:00;;;;;;;8.40;4.37;;;9.10;99.90;;;;;;5053171;28;20029;-85
2022/11/28 02:11:29;;;;;;;8.00;4.77;;;9.10;99.90;;;;;;5036610;28;20538;-85
2022/11/28 02:14:33;;;;;;;10.20;5.40;;;9.10;99.90;;;;;;5052158;28;20049;-84
2022/11/28 02:17:10;;;;;;;7.77;4.70;;;9.10;99.90;;;;;;5053699;28;20460;-84
2022/11/28 02:19:45;;;;;;;10.93;4.43;;;9.10;99.90;;;;;;5053129;28;20112;-85
2022/11/28 02:22:22;;;;;;;11.07;4.43;;;9.10;99.90;;;;;;5052734;28;20052;-84
2022/11/28 02:25:07;;;;;;;11.03;4.67;;;9.00;99.90;;;;;;5052352;28;20033;-86
2022/11/28 02:27:51;;;;;;;9.33;4.60;;;9.00;99.90;;;;;;5052639;28;20025;-86
2022/11/28 02:30:20;;;;;;;9.40;4.57;;;9.00;99.90;;;;;;5053529;28;20033;-86
2022/11/28 02:32:52;;;;;;;8.83;4.47;;;9.00;99.90;;;;;;5054923;28;20033;-84
2022/11/28 02:35:33;;;;;;;12.17;5.50;;;8.90;99.90;;;;;;5068942;28;20047;-84
2022/11/28 02:38:31;;;;;;;10.73;5.33;;;8.90;99.90;;;;;;5070251;28;20032;-86
2022/11/28 02:41:21;;;;;;;9.53;5.40;;;8.80;99.90;;;;;;5071861;28;20020;-85
2022/11/28 02:44:08;;;;;;;10.97;5.00;;;8.80;99.90;;;;;;5072254;28;20032;-86
2022/11/28 02:47:04;;;;;;;9.73;6.17;;;8.80;99.90;;;;;;5072520;28;20181;-85
2022/11/28 02:49:59;;;;;;;9.10;5.43;;;8.70;99.90;;;;;;5059625;28;20032;-86
2022/11/28 02:52:36;;;;;;;13.47;6.23;;;8.70;99.90;;;;;;5072291;28;20024;-86
2022/11/28 02:55:04;;;;;;;11.73;5.70;;;8.60;99.90;;;;;;5072585;28;20453;-86
2022/11/28 02:57:46;;;;;;;10.13;5.53;;;8.70;99.90;;;;;;5072216;28;20027;-86
2022/11/28 03:00:32;;;;;;;10.80;6.30;;;8.70;99.90;;;;;;5071985;28;20017;-86
2022/11/28 03:03:16;;;;;;;12.43;6.63;;;8.60;99.90;;;;;;5071972;28;20153;-86
2022/11/28 03:05:50;;;;;;;11.33;6.43;;;8.60;99.90;;;;;;5073628;28;20542;-86
2022/11/28 03:09:01;;;;;;;11.85;6.93;;;8.60;99.90;;;;;;5072166;28;20776;-85
2022/11/28 03:11:55;;;;;;;13.10;6.20;;;8.60;99.90;;;;;;5072840;28;20481;-86
2022/11/28 03:14:38;;;;;;;11.83;6.50;;;8.60;99.90;;;;;;5073437;28;20052;-87
2022/11/28 03:17:37;;;;;;;11.43;6.80;;;8.50;99.90;;;;;;5071568;28;20028;-85
2022/11/28 03:20:26;;;;;;;9.53;6.10;;;8.60;99.90;;;;;;5071939;28;20143;-86
2022/11/28 03:23:12;;;;;;;12.67;6.17;;;8.50;99.90;;;;;;5071837;28;20388;-85
2022/11/28 03:25:52;;;;;;;13.30;5.73;;;8.50;99.90;;;;;;5072415;28;20127;-86
2022/11/28 03:28:22;;;;;;;9.17;5.33;;;8.50;99.90;;;;;;5075899;28;20550;-87
2022/11/28 03:31:03;;;;;;;10.57;5.07;;;8.60;99.90;;;;;;5077263;28;20365;-87
2022/11/28 03:33:43;;;;;;;8.93;4.90;;;8.50;99.90;;;;;;5076267;28;20063;-86
2022/11/28 03:36:30;;;;;;;9.83;5.50;;;8.60;99.90;;;;;;5078173;28;20086;-86
2022/11/28 03:39:02;;;;;;;9.40;4.93;;;8.50;99.90;;;;;;5077560;28;20031;-86
2022/11/28 03:41:38;;;;;;;8.70;5.10;;;8.60;99.90;;;;;;5076527;28;20063;-86
2022/11/28 03:44:10;;;;;;;8.77;4.80;;;8.60;99.90;;;;;;5075966;28;20452;-86
2022/11/28 03:46:42;;;;;;;10.10;4.67;;;8.60;99.90;;;;;;5077923;28;20111;-86
2022/11/28 03:49:10;;;;;;;10.33;5.13;;;8.60;99.90;;;;;;5077983;28;20496;-87
2022/11/28 03:51:45;;;;;;;9.63;5.03;;;8.60;99.90;;;;;;5077380;28;20040;-86
2022/11/28 03:54:20;;;;;;;9.23;4.70;;;8.60;99.90;;;;;;5075959;28;20031;-87
2022/11/28 03:56:52;;;;;;;10.20;5.53;;;8.70;99.90;;;;;;5075772;28;20044;-86
2022/11/28 03:59:43;;;;;;;8.73;4.47;;;8.70;99.90;;;;;;5077005;28;20460;-86
2022/11/28 04:02:27;;;;;;;11.03;6.17;;;8.70;99.90;;;;;;5064370;28;20101;-85
2022/11/28 04:05:18;;;;;;;9.52;5.85;;;8.70;99.90;;;;;;5075231;28;20064;-86
2022/11/28 04:07:51;;;;;;;10.23;6.20;;;8.70;99.90;;;;;;5074925;28;20016;-85
2022/11/28 04:10:41;;;;;;;10.40;6.43;;;8.70;99.90;;;;;;5075002;28;20075;-86
2022/11/28 04:13:27;;;;;;;10.30;6.53;;;8.70;99.90;;;;;;5074321;28;20025;-83
2022/11/28 04:16:11;;;;;;;12.57;7.00;;;8.70;99.90;;;;;;5074859;28;20024;-86
2022/11/28 04:19:01;;;;;;;12.13;7.07;;;8.70;99.90;;;;;;5075140;28;20032;-86
2022/11/28 04:21:36;;;;;;;10.80;6.80;;;8.70;99.90;;;;;;5074978;28;20075;-86
2022/11/28 04:24:09;;;;;;;10.40;6.57;;;8.70;99.90;;;;;;5075300;28;20017;-86
2022/11/28 04:26:47;;;;;;;14.57;6.88;;;8.70;99.90;;;;;;5075029;28;20016;-86
2022/11/28 04:29:16;;;;;;;10.80;6.77;;;8.70;99.90;;;;;;5075595;28;20077;-85
2022/11/28 04:31:44;;;;;;;9.83;5.80;;;8.80;99.90;;;;;;5075578;28;20036;-87
2022/11/28 04:34:15;;;;;;;9.13;5.93;;;8.70;99.90;;;;;;5075949;28;20104;-86
2022/11/28 04:36:43;;;;;;;11.43;5.97;;;8.70;99.90;;;;;;5075924;28;20380;-86
2022/11/28 04:39:15;;;;;;;10.80;6.17;;;8.80;99.90;;;;;;5076291;28;20119;-86
2022/11/28 04:41:50;;;;;;;12.53;6.40;;;8.70;99.90;;;;;;5077492;28;20527;-88
2022/11/28 04:44:28;;;;;;;10.17;6.23;;;8.70;99.90;;;;;;5077352;28;20031;-87
2022/11/28 04:46:55;;;;;;;9.50;6.20;;;8.70;99.90;;;;;;5075442;28;20048;-88
2022/11/28 04:49:22;;;;;;;9.60;6.47;;;8.70;99.90;;;;;;5074994;28;20052;-86
2022/11/28 04:52:19;;;;;;;9.17;5.57;;;8.70;99.90;;;;;;5074509;28;20120;-86
2022/11/28 04:54:59;;;;;;;10.30;6.37;;;8.70;99.90;;;;;;5074275;28;20024;-85
2022/11/28 04:57:42;;;;;;;9.77;5.90;;;8.70;99.90;;;;;;5074300;28;20016;-88
2022/11/28 05:00:12;;;;;;;13.33;5.73;;;8.70;99.90;;;;;;5074991;28;20028;-88
2022/11/28 05:02:40;;;;;;;10.37;6.40;;;8.70;99.90;;;;;;5074257;28;20028;-87
2022/11/28 05:05:12;;;;;;;10.20;5.53;;;8.70;99.90;;;;;;5074403;28;20043;-86
2022/11/28 05:07:38;;;;;;;9.27;5.43;;;8.70;99.90;;;;;;5074529;28;20125;-85
2022/11/28 05:10:04;;;;;;;9.10;5.63;;;8.70;99.90;;;;;;5057515;28;20476;-87
2022/11/28 05:12:30;;;;;;;12.20;5.63;;;8.70;99.90;;;;;;5074457;28;20029;-86
2022/11/28 05:14:56;;;;;;;8.93;5.47;;;8.70;99.90;;;;;;5057168;28;20505;-87
2022/11/28 05:17:21;;;;;;;8.13;5.00;;;8.70;99.90;;;;;;5057929;28;20093;-85
2022/11/28 05:19:47;;;;;;;9.37;5.87;;;8.70;99.90;;;;;;5073655;28;20025;-87
2022/11/28 05:22:12;;;;;;;8.23;5.00;;;8.70;99.90;;;;;;5073984;28;20033;-87
2022/11/28 05:24:38;;;;;;;9.43;5.63;;;8.70;99.90;;;;;;5075433;28;20054;-88
2022/11/28 05:27:04;;;;;;;8.17;4.90;;;8.70;99.90;;;;;;5060354;28;20036;-88
2022/11/28 05:29:29;;;;;;;9.97;5.03;;;8.70;99.90;;;;;;5059824;28;20029;-91
2022/11/28 05:31:55;;;;;;;7.57;5.43;;;8.70;99.90;;;;;;5074744;28;20473;-89
2022/11/28 05:34:21;;;;;;;8.40;4.90;;;8.70;99.90;;;;;;5074871;28;20035;-89
2022/11/28 05:36:46;;;;;;;8.73;4.60;;;8.70;99.90;;;;;;5074968;28;20024;-89
2022/11/28 05:39:12;;;;;;;8.83;4.73;;;8.70;99.90;;;;;;5059117;28;20029;-89
2022/11/28 05:41:37;;;;;;;7.20;4.40;;;8.70;99.90;;;;;;5060237;28;20098;-89
2022/11/28 05:44:03;;;;;;;8.53;4.47;;;8.70;99.90;;;;;;5071242;28;20449;-88
2022/11/28 05:46:29;;;;;;;7.83;4.63;;;8.70;99.90;;;;;;5056983;28;20021;-85
2022/11/28 05:48:55;;;;;;;7.43;4.53;;;8.70;99.90;;;;;;5069897;28;20029;-86
2022/11/28 05:51:21;;;;;;;6.60;3.93;;;8.70;99.90;;;;;;5072493;28;20087;-84
2022/11/28 05:53:47;;;;;;;8.50;4.80;;;8.70;99.90;;;;;;5055792;28;20477;-85
2022/11/28 05:56:16;;;;;;;8.47;4.60;;;8.70;99.90;;;;;;5057362;28;20028;-87
2022/11/28 05:58:43;;;;;;;7.20;4.60;;;8.80;99.90;;;;;;5073283;28;20028;-87
2022/11/28 06:01:19;;;;;;;7.60;4.37;;;8.70;99.90;;;;;;5073921;28;20036;-87
2022/11/28 06:03:45;;;;;;;7.27;4.27;;;8.70;99.90;;;;;;5072806;28;20119;-88
2022/11/28 06:06:20;;;;;;;6.97;4.07;;;8.70;99.90;;;;;;5073456;28;20045;-86
2022/11/28 06:08:48;;;;;;;6.83;4.20;;;8.70;99.90;;;;;;5073841;28;20514;-88
2022/11/28 06:11:14;;;;;;;7.83;4.37;;;8.70;99.90;;;;;;5074658;28;20472;-89
2022/11/28 06:13:41;;;;;;;7.93;3.97;;;8.70;99.90;;;;;;5074065;28;20048;-88
2022/11/28 06:16:12;;;;;;;6.43;4.30;;;8.70;99.90;;;;;;5073473;28;20020;-88
2022/11/28 06:18:39;;;;;;;6.80;4.30;;;8.70;99.90;;;;;;5073645;28;20021;-88
2022/11/28 06:21:06;;;;;;;6.33;3.80;;;8.70;99.90;;;;;;5072953;28;20092;-87
2022/11/28 06:23:32;;;;;;;6.97;4.07;;;8.70;99.90;;;;;;5065657;28;20027;-87
2022/11/28 06:26:05;;;;;;;7.17;3.93;;;8.70;99.90;;;;;;5072687;28;20032;-88
2022/11/28 06:28:30;;;;;;;6.07;4.00;;;8.70;99.90;;;;;;5072319;28;20070;-87
2022/11/28 06:30:56;;;;;;;5.93;3.93;;;8.70;99.90;;;;;;5072416;28;20062;-87
2022/11/28 06:33:22;;;;;;;5.93;3.80;;;8.80;99.90;;;;;;5055385;28;20636;-88
2022/11/28 06:35:47;;;;;;;7.23;4.43;;;8.80;99.90;;;;;;5071557;28;20055;-87
2022/11/28 06:38:13;;;;;;;8.23;4.20;;;8.80;99.90;;;;;;5073061;28;20029;-86
2022/11/28 06:40:40;;;;;;;6.47;3.80;;;8.70;99.90;;;;;;5056626;28;20032;-87
2022/11/28 06:43:05;;;;;;;8.10;4.33;;;8.80;99.90;;;;;;5074057;28;20480;-85
2022/11/28 06:45:34;;;;;;;6.67;3.77;;;8.80;99.90;;;;;;5052244;28;20024;-88
2022/11/28 06:48:00;;;;;;;7.47;3.83;;;8.90;99.90;;;;;;5044283;28;20067;-88
2022/11/28 06:50:26;;;;;;;5.83;3.90;;;8.80;99.90;;;;;;5038670;28;20052;-88
2022/11/28 06:52:54;;;;;;;5.93;3.90;;;8.80;99.90;;;;;;5072508;28;20029;-88
2022/11/28 06:55:19;;;;;;;6.37;3.93;;;8.80;99.90;;;;;;5072900;28;20025;-88
2022/11/28 06:57:45;;;;;;;7.67;4.40;;;8.80;99.90;;;;;;5056118;28;20377;-87
2022/11/28 07:00:11;;;;;;;8.43;4.43;;;8.80;99.90;;;;;;5066236;28;20044;-88
2022/11/28 07:02:37;;;;;;;6.70;4.10;;;8.80;99.90;;;;;;5078073;28;20032;-87
2022/11/28 07:05:03;;;;;;;6.77;4.23;;;8.70;99.90;;;;;;5057525;28;20025;-88
2022/11/28 07:07:29;;;;;;;6.60;3.93;;;8.80;99.90;;;;;;5053106;28;20071;-87
2022/11/28 07:09:54;;;;;;;6.20;4.07;;;8.80;99.90;;;;;;5066887;28;20040;-89
2022/11/28 07:12:20;;;;;;;6.43;4.17;;;8.80;99.90;;;;;;5073433;28;20043;-88
2022/11/28 07:14:46;;;;;;;9.87;4.27;;;8.90;99.90;;;;;;5056834;28;20048;-88
2022/11/28 07:17:11;;;;;;;7.63;4.63;;;8.90;99.90;;;;;;5053660;28;20055;-86
2022/11/28 07:19:37;;;;;;;6.60;4.30;;;8.80;99.90;;;;;;5051596;28;20120;-87
2022/11/28 07:22:03;;;;;;;10.00;5.10;;;8.90;99.90;;;;;;5034991;28;20488;-86
2022/11/28 07:24:29;;;;;;;7.30;4.93;;;8.90;99.90;;;;;;5051475;28;20484;-88
2022/11/28 07:26:55;;;;;;;8.37;4.43;;;8.90;99.90;;;;;;5035797;28;20029;-86
2022/11/28 07:29:21;;;;;;;8.67;4.93;;;8.90;99.90;;;;;;5053927;28;20105;-88
2022/11/28 07:31:47;;;;;;;7.90;5.13;;;8.90;99.90;;;;;;5052819;28;20041;-89
2022/11/28 07:34:13;;;;;;;7.90;5.07;;;8.90;99.90;;;;;;5035984;28;20025;-86
2022/11/28 07:36:39;;;;;;;8.23;5.10;;;8.90;99.90;;;;;;5052754;28;20025;-86
2022/11/28 07:39:07;;;;;;;7.83;4.63;;;8.90;99.90;;;;;;5035541;28;20058;-86
2022/11/28 07:41:33;;;;;;;8.07;5.47;;;8.90;99.90;;;;;;5035716;28;20025;-85
2022/11/28 07:44:00;;;;;;;7.70;5.37;;;8.90;99.90;;;;;;5052447;28;20484;-87
2022/11/28 07:46:28;;;;;;;7.90;5.53;;;8.90;99.90;;;;;;5053779;28;20026;-86
2022/11/28 07:48:54;;;;;;;8.33;5.43;;;8.90;99.90;;;;;;5035685;28;20454;-88
2022/11/28 07:51:23;;;;;;;9.53;6.03;;;8.90;99.90;;;;;;5039680;28;20040;-87
2022/11/28 07:53:49;;;;;;;11.07;5.70;;;8.90;99.90;;;;;;5061810;28;20472;-87
2022/11/28 07:56:19;;;;;;;9.17;6.20;;;8.90;99.90;;;;;;5046940;28;20035;-86
2022/11/28 07:58:46;;;;;;;9.67;5.93;;;8.90;99.90;;;;;;5062642;28;20048;-87
2022/11/28 08:01:18;;;;;;;8.43;6.03;;;9.00;99.90;;;;;;5053668;28;20040;-84
2022/11/28 08:03:44;;;;;;;9.30;6.10;;;9.00;99.90;;;;;;5051366;28;20029;-83
2022/11/28 08:06:10;;;;;;;9.00;6.13;;;9.00;99.90;;;;;;5044412;28;20361;-81
2022/11/28 08:08:36;;;;;;;10.73;6.67;;;8.90;99.90;;;;;;5051608;28;20020;-84
2022/11/28 08:11:04;;;;;;;12.27;6.10;;;9.00;99.90;;;;;;5054283;28;20499;-82
2022/11/28 08:13:30;;;;;;;8.87;5.70;;;8.90;99.90;;;;;;5056849;28;20392;-83
2022/11/28 08:15:56;;;;;;;9.57;6.63;;;9.00;99.90;;;;;;5057211;28;20461;-81
2022/11/28 08:18:22;;;;;;;8.97;5.93;;;9.00;99.90;;;;;;5074694;28;20036;-78
2022/11/28 08:20:48;;;;;;;9.70;7.07;;;9.00;99.90;;;;;;5074249;28;20032;-82
2022/11/28 08:23:14;;;;;;;8.63;5.60;;;9.00;99.90;;;;;;5069576;28;20048;-80
2022/11/28 08:25:40;;;;;;;9.43;6.10;;;9.00;99.90;;;;;;5060565;28;20377;-79
2022/11/28 08:28:05;;;;;;;10.80;5.57;;;9.00;99.90;;;;;;5054164;28;20024;-78
2022/11/28 08:30:31;;;;;;;9.50;6.27;;;9.10;99.90;;;;;;5053086;28;20121;-80
2022/11/28 08:32:57;;;;;;;12.77;6.77;;;9.00;99.90;;;;;;5038226;28;20033;-86
2022/11/28 08:35:22;;;;;;;9.13;5.93;;;9.00;99.90;;;;;;5037668;28;20078;-82
2022/11/28 08:37:48;;;;;;;9.97;6.43;;;9.10;99.90;;;;;;5037317;28;20120;-82
2022/11/28 08:40:14;;;;;;;13.57;7.20;;;9.10;99.90;;;;;;5054798;28;20036;-82
2022/11/28 08:42:40;;;;;;;9.73;7.23;;;9.10;99.90;;;;;;5055824;28;20083;-83
2022/11/28 08:45:07;;;;;;;10.00;7.27;;;9.10;99.90;;;;;;5037282;28;20477;-82
2022/11/28 08:47:33;;;;;;;10.83;7.37;;;9.00;99.90;;;;;;5055773;28;20033;-83
2022/11/28 08:49:58;;;;;;;12.07;7.17;;;9.10;99.90;;;;;;5037281;28;20396;-82
2022/11/28 08:52:24;;;;;;;10.70;7.13;;;9.10;99.90;;;;;;5053772;28;20568;-82
2022/11/28 08:54:50;;;;;;;10.63;7.30;;;9.10;99.90;;;;;;5037278;28;20045;-82
2022/11/28 08:57:15;;;;;;;11.60;8.10;;;9.10;99.90;;;;;;5055000;28;20060;-86
2022/11/28 08:59:41;;;;;;;10.43;7.10;;;9.10;99.90;;;;;;5056174;28;20025;-82
2022/11/28 09:02:11;;;;;;;10.97;7.50;;;9.10;99.90;;;;;;5054897;28;20033;-84
2022/11/28 09:04:37;;;;;;;11.67;7.27;;;9.10;99.90;;;;;;5037345;28;20021;-83
2022/11/28 09:07:03;;;;;;;12.27;7.20;;;9.10;99.90;;;;;;5054254;28;20040;-83
2022/11/28 09:09:28;;;;;;;11.67;7.67;;;9.00;99.90;;;;;;5054556;28;20120;-86
2022/11/28 09:11:54;;;;;;;11.47;7.33;;;9.10;99.90;;;;;;5037884;28;20124;-86
2022/11/28 09:14:20;;;;;;;12.10;7.60;;;9.10;99.90;;;;;;5053101;28;20055;-82
2022/11/28 09:16:45;;;;;;;10.60;6.80;;;9.10;99.90;;;;;;5056480;28;20449;-81
2022/11/28 09:19:11;;;;;;;9.43;6.63;;;9.10;99.90;;;;;;5068783;28;20060;-82
2022/11/28 09:21:37;;;;;;;10.70;7.07;;;9.20;99.90;;;;;;5053353;28;20060;-84
2022/11/28 09:24:03;;;;;;;12.70;6.73;;;9.20;99.90;;;;;;5052548;28;20025;-83
2022/11/28 09:26:29;;;;;;;11.33;7.33;;;9.20;99.90;;;;;;5038156;28;20021;-84
2022/11/28 09:28:55;;;;;;;14.47;7.07;;;9.20;99.90;;;;;;5073741;28;20036;-85
2022/11/28 09:31:21;;;;;;;10.83;8.43;;;9.20;99.90;;;;;;5073863;28;20037;-84
2022/11/28 09:33:48;;;;;;;11.03;7.70;;;9.30;99.90;;;;;;5073466;28;20046;-84
2022/11/28 09:36:17;;;;;;;11.73;7.20;;;9.30;99.90;;;;;;5073409;28;20827;-84
2022/11/28 09:38:43;;;;;;;11.03;7.80;;;9.30;99.90;;;;;;5073362;28;20457;-84
2022/11/28 09:41:35;;;;;;;10.87;7.23;;;9.30;99.90;;;;;;5075041;28;20035;-84
2022/11/28 09:44:39;;;;;;;10.27;6.63;;;9.30;99.90;;;;;;5070743;28;20542;-85
2022/11/28 09:47:12;;;;;;;10.38;6.95;;;9.30;99.90;;;;;;5073269;28;20032;-85
2022/11/28 09:49:49;;;;;;;9.70;6.90;;;9.40;99.90;;;;;;5073468;28;20119;-85
2022/11/28 09:53:00;;;;;;;11.60;7.37;;;9.40;99.90;;;;;;5074024;28;20437;-85
2022/11/28 09:55:39;;;;;;;9.90;6.83;;;9.40;99.90;;;;;;5072123;28;20178;-84
2022/11/28 09:58:17;;;;;;;9.87;6.90;;;9.40;99.90;;;;;;5074284;28;20077;-84
2022/11/28 10:01:21;;;;;;;9.80;6.93;;;9.40;99.90;;;;;;5074236;28;20024;-84
2022/11/28 10:03:50;;;;;;;8.40;5.88;;;9.50;99.90;;;;;;5073453;28;20035;-83
2022/11/28 10:07:04;;;;;;;8.17;5.70;;;9.50;99.90;;;;;;5072945;28;20020;-84
2022/11/28 10:09:29;;;;;;;9.53;6.13;;;9.50;99.90;;;;;;5068842;28;20045;-84
2022/11/28 10:12:22;;;;;;;8.63;6.07;;;9.60;99.90;;;;;;5074095;28;20120;-84
2022/11/28 10:14:57;;;;;;;7.87;5.70;;;9.50;99.90;;;;;;5072272;28;20048;-84
2022/11/28 10:17:49;;;;;;;8.90;6.20;;;9.60;99.90;;;;;;5073790;28;20021;-84
2022/11/28 10:20:21;;;;;;;8.10;5.20;;;9.60;99.90;;;;;;5072919;28;20027;-84
2022/11/28 10:23:19;;;;;;;10.17;5.30;;;9.60;99.90;;;;;;5072741;28;20063;-84
2022/11/28 10:26:11;;;;;;;8.67;5.53;;;9.60;99.90;;;;;;5064261;28;20120;-84
2022/11/28 10:28:41;;;;;;;9.30;6.00;;;9.60;99.90;;;;;;5089525;28;20506;-84
2022/11/28 10:31:38;;;;;;;8.17;5.83;;;9.70;99.90;;;;;;5072155;28;20490;-84
2022/11/28 10:34:22;;;;;;;8.50;5.73;;;9.70;99.90;;;;;;5073870;28;20028;-84
2022/11/28 10:37:03;;;;;;;8.65;5.40;;;9.70;99.90;;;;;;5072040;28;20030;-84
2022/11/28 10:39:29;;;;;;;9.87;5.80;;;9.70;99.90;;;;;;5073656;28;20074;-85
2022/11/28 10:42:27;;;;;;;9.37;5.67;;;9.70;99.90;;;;;;5072387;28;20024;-84
2022/11/28 10:45:12;;;;;;;8.57;5.37;;;9.70;99.90;;;;;;5071631;28;20028;-84
2022/11/28 10:48:05;;;;;;;9.77;6.80;;;9.70;99.90;;;;;;5073671;28;20522;-84
2022/11/28 10:50:37;;;;;;;10.37;6.07;;;9.70;99.90;;;;;;5072131;28;20040;-84
2022/11/28 10:53:31;;;;;;;9.60;6.30;;;9.70;99.90;;;;;;5071699;28;20024;-84
2022/11/28 10:56:14;;;;;;;11.40;6.87;;;9.80;99.90;;;;;;5073619;28;20021;-84
2022/11/28 10:59:01;;;;;;;10.70;6.83;;;9.80;99.90;;;;;;5072000;28;20024;-84
2022/11/28 11:01:36;;;;;;;12.07;7.90;;;9.80;99.90;;;;;;5071714;28;20062;-84
2022/11/28 11:04:02;;;;;;;13.60;7.60;;;9.90;99.90;;;;;;5073176;28;20020;-84
2022/11/28 11:06:28;;;;;;;13.87;7.80;;;9.90;99.90;;;;;;5071995;28;20121;-84
2022/11/28 11:08:54;;;;;;;11.53;7.87;;;9.90;99.90;;;;;;5071852;28;20476;-84
2022/11/28 11:11:31;;;;;;;14.30;8.07;;;10.00;99.90;;;;;;5055191;28;20071;-85
2022/11/28 11:14:05;;;;;;;14.13;8.67;;;10.00;99.90;;;;;;5071184;28;20430;-85
2022/11/28 11:16:59;;;;;;;14.52;8.88;;;10.00;99.90;;;;;;5073646;28;20103;-85
2022/11/28 11:19:34;;;;;;;16.13;9.95;;;10.10;99.90;;;;;;5071777;28;20029;-85
2022/11/28 11:22:08;;;;;;;12.47;8.20;;;10.00;99.90;;;;;;5073382;28;20024;-85
2022/11/28 11:24:33;;;;;;;;;;;10.10;99.90;;;;;;5073407;28;20021;-84
2022/11/28 11:27:06;;;;;;;15.47;8.93;;;10.10;99.90;;;;;;5072003;28;19915;-83
2022/11/28 11:29:36;;;;;;;12.53;8.17;;;10.20;99.90;;;;;;5072072;28;20472;-85
2022/11/28 11:32:05;;;;;;;15.80;9.60;;;10.10;99.90;;;;;;5071378;28;20032;-84
2022/11/28 11:34:42;;;;;;;13.63;8.87;;;10.20;99.90;;;;;;5071928;28;20028;-84
2022/11/28 11:37:27;;;;;;;13.87;9.73;;;10.20;99.90;;;;;;5071605;28;20036;-85
2022/11/28 11:39:53;;;;;;;16.33;9.68;;;10.10;99.90;;;;;;5071811;28;20025;-84
2022/11/28 11:42:21;;;;;;;16.67;9.40;;;10.20;99.90;;;;;;5071691;28;20032;-85
2022/11/28 11:44:47;;;;;;;13.90;9.70;;;10.20;99.90;;;;;;5071483;28;20028;-84
2022/11/28 11:47:12;;;;;;;15.10;9.70;;;10.20;99.90;;;;;;5074448;28;20173;-84
2022/11/28 11:49:40;;;;;;;13.93;9.70;;;10.20;99.90;;;;;;5059023;28;20034;-83
2022/11/28 11:52:12;;;;;;;13.88;9.20;;;10.20;99.90;;;;;;5075820;28;20392;-84
2022/11/28 11:54:56;;;;;;;14.68;9.50;;;10.20;99.90;;;;;;5075869;28;20032;-84
2022/11/28 11:57:25;;;;;;;14.13;9.07;;;10.20;99.90;;;;;;5076544;28;20075;-85
2022/11/28 12:00:08;;;;;;;15.17;9.50;;;10.30;99.90;;;;;;5075599;28;20032;-84
2022/11/28 12:02:36;;;;;;;14.43;9.27;;;10.20;99.90;;;;;;5076083;28;20085;-84
2022/11/28 12:05:12;;;;;;;13.87;8.97;;;10.20;99.90;;;;;;5078501;28;20461;-84
2022/11/28 12:08:03;;;;;;;13.43;9.00;;;10.20;99.90;;;;;;5078929;28;20036;-84
2022/11/28 12:10:34;;;;;;;15.73;9.97;;;10.30;99.90;;;;;;5093514;28;20040;-84
2022/11/28 12:13:03;;;;;;;14.03;9.80;;;10.40;99.90;;;;;;5078127;28;20084;-85
2022/11/28 12:15:59;;;;;;;14.70;8.97;;;10.20;99.90;;;;;;5079212;28;20488;-84
2022/11/28 12:18:25;;;;;;;13.03;9.07;;;10.20;99.90;;;;;;5078339;28;20039;-83
2022/11/28 12:21:12;;;;;;;13.77;9.27;;;10.20;99.90;;;;;;5081702;28;20111;-84
2022/11/28 12:23:50;;;;;;;13.17;8.57;;;10.20;99.90;;;;;;5079717;28;20028;-84
2022/11/28 12:26:34;;;;;;;14.87;9.70;;;10.20;99.90;;;;;;5078496;28;20025;-84
2022/11/28 12:29:11;;;;;;;;;;;10.30;99.90;;;;;;5078920;28;20108;-84
2022/11/28 12:31:40;;;;;;;14.13;9.80;;;10.30;99.90;;;;;;5078367;28;19994;-85
2022/11/28 12:34:25;;;;;;;16.13;8.77;;;10.20;99.90;;;;;;5076897;28;20020;-84
2022/11/28 12:37:08;;;;;;;13.93;8.07;;;10.20;99.90;;;;;;5077100;28;20028;-85
2022/11/28 12:39:42;;;;;;;13.13;8.20;;;10.20;99.90;;;;;;5076066;28;20032;-85
2022/11/28 12:42:28;;;;;;;13.13;8.27;;;10.30;99.90;;;;;;5075600;28;20048;-84
2022/11/28 12:45:23;;;;;;;12.93;8.73;;;10.30;99.90;;;;;;5076035;28;20025;-84
2022/11/28 12:47:56;;;;;;;;;;;10.30;99.90;;;;;;5065438;28;20128;-85
2022/11/28 12:50:30;;;;;;;10.97;7.17;;;10.30;99.90;;;;;;5076546;28;20253;-83
2022/11/28 12:53:02;;;;;;;12.68;7.63;;;10.40;99.90;;;;;;5075987;28;20482;-84
2022/11/28 12:55:32;;;;;;;12.97;8.23;;;10.30;99.90;;;;;;5076045;28;20025;-84
2022/11/28 12:58:29;;;;;;;12.57;8.30;;;10.40;99.90;;;;;;5074419;28;20481;-83
2022/11/28 13:01:26;;;;;;;13.43;8.20;;;10.40;99.90;;;;;;5061239;28;20059;-84
2022/11/28 13:04:20;;;;;;;11.85;7.75;;;10.40;99.90;;;;;;5073409;28;20111;-84
2022/11/28 13:07:05;;;;;;;12.45;8.20;;;10.40;99.90;;;;;;5075603;28;20488;-84
2022/11/28 13:09:36;;;;;;;14.60;8.97;;;10.40;99.90;;;;;;5073378;28;20070;-84
2022/11/28 13:12:31;;;;;;;13.00;7.90;;;10.40;99.90;;;;;;5091059;28;20032;-84
2022/11/28 13:15:01;;;;;;;11.60;7.40;;;10.50;99.90;;;;;;5075356;28;20083;-84
2022/11/28 13:17:35;;;;;;;12.93;7.90;;;10.50;99.90;;;;;;5075535;28;20169;-84
2022/11/28 13:20:24;;;;;;;12.38;7.75;;;10.50;99.90;;;;;;5075501;28;20028;-84